Ever Grand — 3FNB8 — position and weather

sailwx.info

Track history (hours):
 
Tides and Currents Weather Stations Pressure Air Temp Water Temp Dewpoint Dewpoint Depression Visibility Wind Speed Wind Dir Waves Ship Positions

Ever Grand

Last reported at 2018-Jan-19 14:10 UTC. Time now 2018-Jan-22 16:23 UTC.
Position N 01°21' E 103°17'.

Length 229 m; draft 14.8 m.

Type: Cargo ship. MMSI: 373481000.

Date/timePositionNaut miles runAvg speedWind from/ knotsBaromVisibWave heightAir tempDewpointWater temp
2018-Jan-19 14:10N 01°21' E 103°17'210.5
2018-Jan-19 13:56N 01°19' E 103°19'510.7
2018-Jan-19 13:31N 01°17' E 103°22'611.3
2018-Jan-19 12:58N 01°14' E 103°28'511.7
2018-Jan-19 12:31N 01°13' E 103°33'611.2
2018-Jan-19 12:00N 01°12' E 103°38'510.2
2018-Jan-19 11:31N 01°09' E 103°43'4 8.1
2018-Jan-19 11:01N 01°10' E 103°47'4 8.5
2018-Jan-19 10:30N 01°12' E 103°51'4 8.5
2018-Jan-19 09:59N 01°14' E 103°55'3 5.7
2018-Jan-19 09:28N 01°15' E 103°57'2 3.4
2018-Jan-19 08:59N 01°17' E 103°58'0 0.5
2018-Jan-19 08:02N 01°17' E 103°58'0 0.0
2018-Jan-19 07:38N 01°17' E 103°58'0 0.0
2018-Jan-19 07:29N 01°17' E 103°58'0 0.0
2018-Jan-19 06:50N 01°17' E 103°58'0 0.0
2018-Jan-19 06:20N 01°17' E 103°58'0 0.0
2018-Jan-18 13:17N 01°17' E 103°58'0 0.1
2018-Jan-18 12:10N 01°17' E 103°58'0 0.4
2018-Jan-18 11:52N 01°17' E 103°58'1 2.8
2018-Jan-18 11:29N 01°17' E 103°59'3 5.0
2018-Jan-18 10:59N 01°16' E 104°02'4 7.9
2018-Jan-18 10:27N 01°17' E 104°06'  
2018-Jan-12 12:36N 23°20' E 119°47'111.4
2018-Jan-12 12:31N 23°21' E 119°48'611.2
2018-Jan-12 12:00N 23°27' E 119°50'610.9
2018-Jan-12 11:30N 23°32' E 119°52'510.5
2018-Jan-12 10:59N 23°37' E 119°54'610.5
2018-Jan-12 10:24N 23°43' E 119°55'8311.3
2018-Jan-12 03:02N 24°53' E 120°45'011.3
2018-Jan-12 03:00N 24°53' E 120°45'  
Track history (hours):
 
Tides and Currents Weather Stations Pressure Air Temp Water Temp Dewpoint Dewpoint Depression Visibility Wind Speed Wind Dir Waves Ship Positions

Ever Grand

Last reported at 2018-Jan-19 14:10 UTC. Time now 2018-Jan-22 16:23 UTC.
Position N 01°21' E 103°17'.

Length 229 m; draft 14.8 m.

Type: Cargo ship. MMSI: 373481000.

Date/timePositionNaut miles runAvg speedWind from/ knotsBaromVisibWave heightAir tempDewpointWater temp
2018-Jan-19 14:10N 01°21' E 103°17'210.5
2018-Jan-19 13:56N 01°19' E 103°19'510.7
2018-Jan-19 13:31N 01°17' E 103°22'611.3
2018-Jan-19 12:58N 01°14' E 103°28'511.7
2018-Jan-19 12:31N 01°13' E 103°33'611.2
2018-Jan-19 12:00N 01°12' E 103°38'510.2
2018-Jan-19 11:31N 01°09' E 103°43'4 8.1
2018-Jan-19 11:01N 01°10' E 103°47'4 8.5
2018-Jan-19 10:30N 01°12' E 103°51'4 8.5
2018-Jan-19 09:59N 01°14' E 103°55'3 5.7
2018-Jan-19 09:28N 01°15' E 103°57'2 3.4
2018-Jan-19 08:59N 01°17' E 103°58'0 0.5
2018-Jan-19 08:02N 01°17' E 103°58'0 0.0
2018-Jan-19 07:38N 01°17' E 103°58'0 0.0
2018-Jan-19 07:29N 01°17' E 103°58'0 0.0
2018-Jan-19 06:50N 01°17' E 103°58'0 0.0
2018-Jan-19 06:20N 01°17' E 103°58'0 0.0
2018-Jan-18 13:17N 01°17' E 103°58'0 0.1
2018-Jan-18 12:10N 01°17' E 103°58'0 0.4
2018-Jan-18 11:52N 01°17' E 103°58'1 2.8
2018-Jan-18 11:29N 01°17' E 103°59'3 5.0
2018-Jan-18 10:59N 01°16' E 104°02'4 7.9
2018-Jan-18 10:27N 01°17' E 104°06'  
2018-Jan-12 12:36N 23°20' E 119°47'111.4
2018-Jan-12 12:31N 23°21' E 119°48'611.2
2018-Jan-12 12:00N 23°27' E 119°50'610.9
2018-Jan-12 11:30N 23°32' E 119°52'510.5
2018-Jan-12 10:59N 23°37' E 119°54'610.5
2018-Jan-12 10:24N 23°43' E 119°55'8311.3
2018-Jan-12 03:02N 24°53' E 120°45'011.3
2018-Jan-12 03:00N 24°53' E 120°45'  

Dump ship's entire track history